Time,TemperatureF,DewpointF,PressureIn,WindDirection,WindDirectionDegrees,WindSpeedMPH,WindSpeedGustMPH,Humidity,HourlyPrecipIn,Conditions,Clouds,dailyrainin,SoftwareType,DateUTC
2013-01-31 00:05:00,48.8,45.0,29.56,WSW,240,4.0,-999.0,85,-99.99,,,0.00,weatherlink.com 1.10,2013-01-31 05:05:00,
2013-01-31 00:20:00,48.5,44.0,29.57,SW,234,3.0,-999.0,84,-99.99,,,0.00,weatherlink.com 1.10,2013-01-31 05:20:00,
2013-01-31 00:35:00,48.2,44.0,29.56,SW,225,10.0,-999.0,84,-99.99,,,0.00,weatherlink.com 1.10,2013-01-31 05:35:00,
2013-01-31 00:50:00,48.0,43.0,29.56,WSW,248,4.0,-999.0,84,-99.99,,,0.00,weatherlink.com 1.10,2013-01-31 05:50:00,
2013-01-31 01:05:00,47.8,43.0,29.56,WSW,246,4.0,-999.0,84,-99.99,,,0.00,weatherlink.com 1.10,2013-01-31 06:05:00,
2013-01-31 01:20:00,47.8,43.0,29.58,SW,231,8.0,-999.0,83,-99.99,,,0.00,weatherlink.com 1.10,2013-01-31 06:20:00,
2013-01-31 01:36:00,48.0,43.0,29.57,WSW,246,4.0,-999.0,82,-99.99,,,0.00,weatherlink.com 1.10,2013-01-31 06:36:00,
2013-01-31 01:50:00,47.9,43.0,29.58,SW,232,6.0,-999.0,82,-99.99,,,0.00,weatherlink.com 1.10,2013-01-31 06:50:00,
2013-01-31 02:06:00,47.8,43.0,29.59,WSW,242,13.0,-999.0,83,-99.99,,,0.00,weatherlink.com 1.10,2013-01-31 07:06:00,
2013-01-31 02:21:00,48.0,43.0,29.61,SW,236,1.0,-999.0,82,-99.99,,,0.00,weatherlink.com 1.10,2013-01-31 07:21:00,
2013-01-31 02:36:00,47.8,43.0,29.62,WSW,241,4.0,-999.0,82,-99.99,,,0.00,weatherlink.com 1.10,2013-01-31 07:36:00,
2013-01-31 02:51:00,47.5,42.0,29.63,SW,230,5.0,-999.0,82,-99.99,,,0.00,weatherlink.com 1.10,2013-01-31 07:51:00,
2013-01-31 03:06:00,47.5,42.0,29.65,SW,236,4.0,-999.0,82,-99.99,,,0.00,weatherlink.com 1.10,2013-01-31 08:06:00,
2013-01-31 03:21:00,47.1,38.0,29.66,WSW,250,0.0,-999.0,72,-99.99,,,0.00,weatherlink.com 1.10,2013-01-31 08:21:00,
2013-01-31 03:37:00,46.3,37.0,29.68,WSW,246,3.0,-999.0,70,-99.99,,,0.00,weatherlink.com 1.10,2013-01-31 08:37:00,
2013-01-31 03:51:00,45.7,36.0,29.68,WNW,284,2.0,-999.0,68,-99.99,,,0.00,weatherlink.com 1.10,2013-01-31 08:51:00,
2013-01-31 04:07:00,45.0,34.0,29.69,SW,233,3.0,-999.0,65,-99.99,,,0.00,weatherlink.com 1.10,2013-01-31 09:07:00,
2013-01-31 04:22:00,44.0,32.0,29.70,SW,229,0.0,-999.0,63,-99.99,,,0.00,weatherlink.com 1.10,2013-01-31 09:22:00,
2013-01-31 04:37:00,43.4,31.0,29.72,West,264,2.0,-999.0,63,-99.99,,,0.00,weatherlink.com 1.10,2013-01-31 09:37:00,
2013-01-31 04:52:00,42.8,30.0,29.74,WNW,284,1.0,-999.0,61,-99.99,,,0.00,weatherlink.com 1.10,2013-01-31 09:52:00,
2013-01-31 05:07:00,42.0,27.0,29.75,SW,231,17.0,-999.0,56,-99.99,,,0.00,weatherlink.com 1.10,2013-01-31 10:07:00,
2013-01-31 05:22:00,41.3,25.0,29.77,WSW,255,1.0,-999.0,53,-99.99,,,0.00,weatherlink.com 1.10,2013-01-31 10:22:00,
2013-01-31 05:38:00,40.6,24.0,29.78,WSW,242,9.0,-999.0,52,-99.99,,,0.00,weatherlink.com 1.10,2013-01-31 10:38:00,
2013-01-31 05:52:00,40.2,24.0,29.79,WSW,240,9.0,-999.0,53,-99.99,,,0.00,weatherlink.com 1.10,2013-01-31 10:52:00,
2013-01-31 06:07:00,39.9,24.0,29.79,WSW,252,11.0,-999.0,53,-99.99,,,0.00,weatherlink.com 1.10,2013-01-31 11:07:00,
2013-01-31 06:23:00,39.7,24.0,29.81,WSW,254,3.0,-999.0,53,-99.99,,,0.00,weatherlink.com 1.10,2013-01-31 11:23:00,
2013-01-31 06:38:00,39.5,24.0,29.81,West,261,2.0,-999.0,54,-99.99,,,0.00,weatherlink.com 1.10,2013-01-31 11:38:00,
2013-01-31 06:53:00,39.1,24.0,29.83,WSW,248,1.0,-999.0,54,-99.99,,,0.00,weatherlink.com 1.10,2013-01-31 11:53:00,
2013-01-31 07:08:00,38.5,23.0,29.85,SW,227,3.0,-999.0,55,-99.99,,,0.00,weatherlink.com 1.10,2013-01-31 12:08:00,
2013-01-31 07:23:00,38.1,23.0,29.86,WSW,247,5.0,-999.0,55,-99.99,,,0.00,weatherlink.com 1.10,2013-01-31 12:23:00,
2013-01-31 07:38:00,37.8,21.0,29.87,WSW,246,7.0,-999.0,52,-99.99,,,0.00,weatherlink.com 1.10,2013-01-31 12:38:00,
2013-01-31 07:53:00,37.7,21.0,29.90,WSW,244,12.0,-999.0,51,-99.99,,,0.00,weatherlink.com 1.10,2013-01-31 12:53:00,
2013-01-31 08:08:00,37.8,21.0,29.90,WSW,258,2.0,-999.0,52,-99.99,,,0.00,weatherlink.com 1.10,2013-01-31 13:08:00,
2013-01-31 08:24:00,38.2,21.0,29.91,West,279,1.0,-999.0,51,-99.99,,,0.00,weatherlink.com 1.10,2013-01-31 13:24:00,
2013-01-31 08:39:00,38.7,21.0,29.91,WSW,255,5.0,-999.0,50,-99.99,,,0.00,weatherlink.com 1.10,2013-01-31 13:39:00,
2013-01-31 08:54:00,39.3,22.0,29.91,WSW,251,5.0,-999.0,51,-99.99,,,0.00,weatherlink.com 1.10,2013-01-31 13:54:00,
2013-01-31 09:09:00,39.7,22.0,29.92,WSW,248,3.0,-999.0,49,-99.99,,,0.00,weatherlink.com 1.10,2013-01-31 14:09:00,
2013-01-31 09:24:00,40.1,22.0,29.92,SW,236,2.0,-999.0,49,-99.99,,,0.00,weatherlink.com 1.10,2013-01-31 14:24:00,
2013-01-31 09:39:00,40.5,23.0,29.93,WSW,242,6.0,-999.0,49,-99.99,,,0.00,weatherlink.com 1.10,2013-01-31 14:39:00,
2013-01-31 09:54:00,41.3,23.0,29.93,WSW,245,0.0,-999.0,49,-99.99,,,0.00,weatherlink.com 1.10,2013-01-31 14:54:00,
2013-01-31 10:09:00,41.7,24.0,29.94,SW,233,2.0,-999.0,50,-99.99,,,0.00,weatherlink.com 1.10,2013-01-31 15:09:00,
2013-01-31 10:24:00,42.0,23.0,29.95,West,259,2.0,-999.0,48,-99.99,,,0.00,weatherlink.com 1.10,2013-01-31 15:24:00,
2013-01-31 10:39:00,42.1,24.0,29.95,SW,223,4.0,-999.0,49,-99.99,,,0.00,weatherlink.com 1.10,2013-01-31 15:39:00,
2013-01-31 10:54:00,42.9,23.0,29.96,WSW,252,1.0,-999.0,46,-99.99,,,0.00,weatherlink.com 1.10,2013-01-31 15:54:00,
2013-01-31 11:09:00,43.1,23.0,29.96,SW,226,3.0,-999.0,46,-99.99,,,0.00,weatherlink.com 1.10,2013-01-31 16:09:00,
2013-01-31 11:25:00,44.2,24.0,29.95,SW,226,6.0,-999.0,46,-99.99,,,0.00,weatherlink.com 1.10,2013-01-31 16:25:00,
2013-01-31 11:40:00,44.3,22.0,29.96,SW,225,11.0,-999.0,42,-99.99,,,0.00,weatherlink.com 1.10,2013-01-31 16:40:00,
2013-01-31 11:55:00,44.6,21.0,29.96,West,259,3.0,-999.0,39,-99.99,,,0.00,weatherlink.com 1.10,2013-01-31 16:55:00,
2013-01-31 12:10:00,45.1,23.0,29.96,SW,229,6.0,-999.0,41,-99.99,,,0.00,weatherlink.com 1.10,2013-01-31 17:10:00,
2013-01-31 12:25:00,45.5,20.0,29.95,SW,229,6.0,-999.0,37,-99.99,,,0.00,weatherlink.com 1.10,2013-01-31 17:25:00,
2013-01-31 12:40:00,46.1,21.0,29.95,WSW,246,1.0,-999.0,37,-99.99,,,0.00,weatherlink.com 1.10,2013-01-31 17:40:00,
2013-01-31 12:55:00,47.0,22.0,29.94,WNW,288,1.0,-999.0,38,-99.99,,,0.00,weatherlink.com 1.10,2013-01-31 17:55:00,
2013-01-31 13:10:00,47.3,23.0,29.94,SW,219,7.0,-999.0,38,-99.99,,,0.00,weatherlink.com 1.10,2013-01-31 18:10:00,
2013-01-31 13:25:00,47.6,24.0,29.94,WSW,243,1.0,-999.0,39,-99.99,,,0.00,weatherlink.com 1.10,2013-01-31 18:25:00,
2013-01-31 13:41:00,48.1,23.0,29.94,SW,223,6.0,-999.0,37,-99.99,,,0.00,weatherlink.com 1.10,2013-01-31 18:41:00,
2013-01-31 13:55:00,48.6,23.0,29.94,SW,225,0.0,-999.0,37,-99.99,,,0.00,weatherlink.com 1.10,2013-01-31 18:55:00,
2013-01-31 14:10:00,48.5,24.0,29.95,WSW,240,3.0,-999.0,38,-99.99,,,0.00,weatherlink.com 1.10,2013-01-31 19:10:00,
2013-01-31 14:25:00,49.3,24.0,29.95,SW,222,3.0,-999.0,38,-99.99,,,0.00,weatherlink.com 1.10,2013-01-31 19:25:00,
2013-01-31 14:41:00,49.9,23.0,29.95,WNW,282,2.0,-999.0,35,-99.99,,,0.00,weatherlink.com 1.10,2013-01-31 19:41:00,
2013-01-31 14:56:00,50.1,24.0,29.97,WSW,250,3.0,-999.0,36,-99.99,,,0.00,weatherlink.com 1.10,2013-01-31 19:56:00,
2013-01-31 15:11:00,50.0,23.0,29.98,WNW,288,4.0,-999.0,35,-99.99,,,0.00,weatherlink.com 1.10,2013-01-31 20:11:00,
2013-01-31 15:26:00,49.7,24.0,29.99,WSW,241,5.0,-999.0,37,-99.99,,,0.00,weatherlink.com 1.10,2013-01-31 20:26:00,
2013-01-31 15:41:00,49.6,23.0,29.99,West,269,2.0,-999.0,35,-99.99,,,0.00,weatherlink.com 1.10,2013-01-31 20:41:00,
2013-01-31 15:56:00,48.7,21.0,29.99,WSW,254,2.0,-999.0,34,-99.99,,,0.00,weatherlink.com 1.10,2013-01-31 20:56:00,
2013-01-31 16:12:00,48.5,21.0,30.00,West,275,1.0,-999.0,34,-99.99,,,0.00,weatherlink.com 1.10,2013-01-31 21:12:00,
2013-01-31 16:26:00,47.8,19.0,30.00,WSW,256,7.0,-999.0,32,-99.99,,,0.00,weatherlink.com 1.10,2013-01-31 21:26:00,
2013-01-31 16:41:00,47.0,18.0,30.00,WSW,252,6.0,-999.0,32,-99.99,,,0.00,weatherlink.com 1.10,2013-01-31 21:41:00,
2013-01-31 16:57:00,46.8,20.0,30.00,West,276,0.0,-999.0,34,-99.99,,,0.00,weatherlink.com 1.10,2013-01-31 21:57:00,
2013-01-31 17:11:00,46.5,20.0,30.01,WSW,246,1.0,-999.0,35,-99.99,,,0.00,weatherlink.com 1.10,2013-01-31 22:11:00,
2013-01-31 17:27:00,45.9,20.0,30.01,SW,231,0.0,-999.0,36,-99.99,,,0.00,weatherlink.com 1.10,2013-01-31 22:27:00,
2013-01-31 17:42:00,45.0,19.0,30.02,WSW,241,5.0,-999.0,36,-99.99,,,0.00,weatherlink.com 1.10,2013-01-31 22:42:00,
2013-01-31 17:57:00,44.4,19.0,30.02,SW,236,2.0,-999.0,37,-99.99,,,0.00,weatherlink.com 1.10,2013-01-31 22:57:00,
2013-01-31 18:12:00,43.8,20.0,30.02,SW,236,1.0,-999.0,38,-99.99,,,0.00,weatherlink.com 1.10,2013-01-31 23:12:00,
2013-01-31 18:27:00,43.6,20.0,30.02,WSW,244,0.0,-999.0,39,-99.99,,,0.00,weatherlink.com 1.10,2013-01-31 23:27:00,
2013-01-31 18:42:00,42.9,20.0,30.03,WSW,242,0.0,-999.0,40,-99.99,,,0.00,weatherlink.com 1.10,2013-01-31 23:42:00,
2013-01-31 18:57:00,42.0,20.0,30.03,WSW,242,0.0,-999.0,42,-99.99,,,0.00,weatherlink.com 1.10,2013-01-31 23:57:00,
2013-01-31 19:12:00,41.0,20.0,30.04,WSW,242,0.0,-999.0,44,-99.99,,,0.00,weatherlink.com 1.10,2013-02-01 00:12:00,
2013-01-31 19:27:00,40.2,21.0,30.04,WSW,242,0.0,-999.0,47,-99.99,,,0.00,weatherlink.com 1.10,2013-02-01 00:27:00,
2013-01-31 19:42:00,39.1,22.0,30.05,WSW,242,0.0,-999.0,51,-99.99,,,0.00,weatherlink.com 1.10,2013-02-01 00:42:00,
2013-01-31 19:57:00,37.8,22.0,30.05,WSW,242,0.0,-999.0,54,-99.99,,,0.00,weatherlink.com 1.10,2013-02-01 00:57:00,
2013-01-31 20:13:00,36.7,24.0,30.04,ESE,109,2.0,-999.0,60,-99.99,,,0.00,weatherlink.com 1.10,2013-02-01 01:13:00,
2013-01-31 20:28:00,36.4,23.0,30.04,NW,312,0.0,-999.0,58,-99.99,,,0.00,weatherlink.com 1.10,2013-02-01 01:28:00,
2013-01-31 20:43:00,36.0,24.0,30.05,NW,312,0.0,-999.0,63,-99.99,,,0.00,weatherlink.com 1.10,2013-02-01 01:43:00,
2013-01-31 20:58:00,35.5,23.0,30.05,NW,312,0.0,-999.0,61,-99.99,,,0.00,weatherlink.com 1.10,2013-02-01 01:58:00,
2013-01-31 21:13:00,35.1,23.0,30.05,NW,312,0.0,-999.0,61,-99.99,,,0.00,weatherlink.com 1.10,2013-02-01 02:13:00,
2013-01-31 21:28:00,34.5,23.0,30.06,NW,312,0.0,-999.0,63,-99.99,,,0.00,weatherlink.com 1.10,2013-02-01 02:28:00,
2013-01-31 21:43:00,34.8,22.0,30.05,NW,312,0.0,-999.0,61,-99.99,,,0.00,weatherlink.com 1.10,2013-02-01 02:43:00,
2013-01-31 21:58:00,35.1,24.0,30.06,NW,312,0.0,-999.0,64,-99.99,,,0.00,weatherlink.com 1.10,2013-02-01 02:58:00,
2013-01-31 22:13:00,35.2,23.0,30.06,NW,312,0.0,-999.0,61,-99.99,,,0.00,weatherlink.com 1.10,2013-02-01 03:13:00,
2013-01-31 22:28:00,35.0,23.0,30.06,NW,312,0.0,-999.0,63,-99.99,,,0.00,weatherlink.com 1.10,2013-02-01 03:28:00,
2013-01-31 22:43:00,34.5,23.0,30.06,NW,312,0.0,-999.0,63,-99.99,,,0.00,weatherlink.com 1.10,2013-02-01 03:43:00,
2013-01-31 22:58:00,34.4,24.0,30.06,WSW,240,3.0,-999.0,66,-99.99,,,0.00,weatherlink.com 1.10,2013-02-01 03:58:00,
2013-01-31 23:14:00,36.1,25.0,30.05,SW,235,1.0,-999.0,64,-99.99,,,0.00,weatherlink.com 1.10,2013-02-01 04:14:00,
2013-01-31 23:29:00,38.3,25.0,30.05,WSW,240,0.0,-999.0,59,-99.99,,,0.00,weatherlink.com 1.10,2013-02-01 04:29:00,
2013-01-31 23:44:00,39.5,25.0,30.05,SW,229,3.0,-999.0,56,-99.99,,,0.00,weatherlink.com 1.10,2013-02-01 04:44:00,
2013-01-31 23:59:00,40.1,25.0,30.05,SW,225,1.0,-999.0,55,-99.99,,,0.00,weatherlink.com 1.10,2013-02-01 04:59:00,